sensor_id;sensor_type;location;lat;lon;timestamp;P1;durP1;ratioP1;P2;durP2;ratioP2
19262;SDS011;9765;52.354;20.884;2023-04-26T04:18:59;8.97;;;4.07;;
19262;SDS011;9765;52.354;20.884;2023-04-26T04:21:25;10.33;;;4.27;;
19262;SDS011;9765;52.354;20.884;2023-04-26T04:23:52;10.90;;;4.23;;
19262;SDS011;9765;52.354;20.884;2023-04-26T04:26:22;12.37;;;4.13;;
19262;SDS011;9765;52.354;20.884;2023-04-26T04:28:48;14.43;;;4.90;;
19262;SDS011;9765;52.354;20.884;2023-04-26T04:31:15;10.53;;;4.60;;
19262;SDS011;9765;52.354;20.884;2023-04-26T04:33:42;14.37;;;5.30;;
19262;SDS011;9765;52.354;20.884;2023-04-26T04:36:11;18.03;;;4.70;;
19262;SDS011;9765;52.354;20.884;2023-04-26T04:38:40;19.10;;;5.80;;
19262;SDS011;9765;52.354;20.884;2023-04-26T04:41:07;14.70;;;5.13;;
19262;SDS011;9765;52.354;20.884;2023-04-26T04:43:34;14.37;;;5.60;;
19262;SDS011;9765;52.354;20.884;2023-04-26T04:46:01;17.53;;;5.23;;
19262;SDS011;9765;52.354;20.884;2023-04-26T04:48:27;16.87;;;5.90;;
19262;SDS011;9765;52.354;20.884;2023-04-26T04:50:55;18.63;;;5.90;;
19262;SDS011;9765;52.354;20.884;2023-04-26T04:53:23;19.70;;;6.50;;
19262;SDS011;9765;52.354;20.884;2023-04-26T04:55:51;23.50;;;6.23;;
19262;SDS011;9765;52.354;20.884;2023-04-26T04:58:17;17.63;;;5.83;;
19262;SDS011;9765;52.354;20.884;2023-04-26T05:00:46;15.97;;;5.60;;
19262;SDS011;9765;52.354;20.884;2023-04-26T05:03:13;13.43;;;5.80;;
19262;SDS011;9765;52.354;20.884;2023-04-26T05:05:39;14.47;;;5.97;;
19262;SDS011;9765;52.354;20.884;2023-04-26T05:08:06;17.53;;;5.90;;
19262;SDS011;9765;52.354;20.884;2023-04-26T05:10:36;18.57;;;6.03;;
19262;SDS011;9765;52.354;20.884;2023-04-26T05:13:03;22.03;;;5.83;;
19262;SDS011;9765;52.354;20.884;2023-04-26T05:15:30;20.17;;;5.70;;
19262;SDS011;9765;52.354;20.884;2023-04-26T05:17:57;19.00;;;5.73;;
19262;SDS011;9765;52.354;20.884;2023-04-26T05:20:24;14.30;;;5.70;;
19262;SDS011;9765;52.354;20.884;2023-04-26T05:22:51;20.80;;;5.77;;
19262;SDS011;9765;52.354;20.884;2023-04-26T05:25:18;18.07;;;5.33;;
19262;SDS011;9765;52.354;20.884;2023-04-26T05:27:46;15.57;;;5.70;;
19262;SDS011;9765;52.354;20.884;2023-04-26T05:30:13;18.47;;;5.60;;
19262;SDS011;9765;52.354;20.884;2023-04-26T05:32:40;19.07;;;6.50;;
19262;SDS011;9765;52.354;20.884;2023-04-26T05:35:07;17.10;;;6.00;;
19262;SDS011;9765;52.354;20.884;2023-04-26T05:37:34;16.50;;;5.27;;
19262;SDS011;9765;52.354;20.884;2023-04-26T05:40:01;15.77;;;4.93;;
19262;SDS011;9765;52.354;20.884;2023-04-26T05:42:28;12.10;;;4.73;;
19262;SDS011;9765;52.354;20.884;2023-04-26T05:44:57;21.37;;;4.97;;
19262;SDS011;9765;52.354;20.884;2023-04-26T05:47:24;17.63;;;4.63;;
19262;SDS011;9765;52.354;20.884;2023-04-26T05:49:51;12.63;;;5.33;;
19262;SDS011;9765;52.354;20.884;2023-04-26T05:52:17;12.90;;;4.80;;
19262;SDS011;9765;52.354;20.884;2023-04-26T05:54:44;10.70;;;4.53;;
19262;SDS011;9765;52.354;20.884;2023-04-26T05:57:11;9.90;;;4.07;;
19262;SDS011;9765;52.354;20.884;2023-04-26T05:59:38;15.27;;;4.13;;
19262;SDS011;9765;52.354;20.884;2023-04-26T06:02:06;14.23;;;4.30;;
19262;SDS011;9765;52.354;20.884;2023-04-26T06:04:33;12.13;;;4.30;;
19262;SDS011;9765;52.354;20.884;2023-04-26T06:07:00;12.57;;;3.97;;
19262;SDS011;9765;52.354;20.884;2023-04-26T06:09:27;14.17;;;4.10;;
19262;SDS011;9765;52.354;20.884;2023-04-26T06:11:56;13.27;;;3.47;;
19262;SDS011;9765;52.354;20.884;2023-04-26T06:14:23;12.77;;;3.50;;
19262;SDS011;9765;52.354;20.884;2023-04-26T06:16:49;13.90;;;3.40;;
19262;SDS011;9765;52.354;20.884;2023-04-26T06:19:17;18.83;;;3.70;;
19262;SDS011;9765;52.354;20.884;2023-04-26T06:21:44;13.40;;;3.60;;
19262;SDS011;9765;52.354;20.884;2023-04-26T06:24:12;13.73;;;3.53;;
19262;SDS011;9765;52.354;20.884;2023-04-26T06:26:39;17.03;;;2.90;;
19262;SDS011;9765;52.354;20.884;2023-04-26T06:29:06;10.87;;;3.10;;
19262;SDS011;9765;52.354;20.884;2023-04-26T06:31:33;11.53;;;3.00;;
19262;SDS011;9765;52.354;20.884;2023-04-26T06:34:00;13.47;;;2.53;;
19262;SDS011;9765;52.354;20.884;2023-04-26T06:36:28;11.70;;;3.20;;
19262;SDS011;9765;52.354;20.884;2023-04-26T06:38:55;12.97;;;3.50;;
19262;SDS011;9765;52.354;20.884;2023-04-26T06:41:22;12.73;;;2.90;;
19262;SDS011;9765;52.354;20.884;2023-04-26T06:43:49;16.40;;;3.33;;
19262;SDS011;9765;52.354;20.884;2023-04-26T06:46:15;15.70;;;3.03;;
19262;SDS011;9765;52.354;20.884;2023-04-26T06:48:43;10.80;;;2.70;;
19262;SDS011;9765;52.354;20.884;2023-04-26T06:51:09;13.70;;;2.90;;
19262;SDS011;9765;52.354;20.884;2023-04-26T06:53:38;11.07;;;2.70;;
19262;SDS011;9765;52.354;20.884;2023-04-26T06:56:05;11.30;;;2.90;;
19262;SDS011;9765;52.354;20.884;2023-04-26T06:58:32;13.90;;;2.83;;
19262;SDS011;9765;52.354;20.884;2023-04-26T07:01:00;10.40;;;2.50;;
19262;SDS011;9765;52.354;20.884;2023-04-26T07:03:27;13.70;;;2.63;;
19262;SDS011;9765;52.354;20.884;2023-04-26T07:05:54;16.17;;;2.73;;
19262;SDS011;9765;52.354;20.884;2023-04-26T07:08:21;11.70;;;2.47;;
19262;SDS011;9765;52.354;20.884;2023-04-26T07:10:49;9.50;;;2.80;;
19262;SDS011;9765;52.354;20.884;2023-04-26T07:13:19;9.77;;;2.47;;
19262;SDS011;9765;52.354;20.884;2023-04-26T07:15:46;15.87;;;3.03;;
19262;SDS011;9765;52.354;20.884;2023-04-26T07:18:12;10.80;;;2.70;;
19262;SDS011;9765;52.354;20.884;2023-04-26T07:20:39;9.90;;;3.10;;
19262;SDS011;9765;52.354;20.884;2023-04-26T07:23:06;9.77;;;2.53;;
19262;SDS011;9765;52.354;20.884;2023-04-26T07:25:32;9.70;;;2.20;;
19262;SDS011;9765;52.354;20.884;2023-04-26T07:28:00;16.50;;;2.90;;
19262;SDS011;9765;52.354;20.884;2023-04-26T07:30:27;17.37;;;2.83;;
19262;SDS011;9765;52.354;20.884;2023-04-26T07:32:56;13.60;;;2.80;;
19262;SDS011;9765;52.354;20.884;2023-04-26T07:35:23;12.10;;;2.53;;
19262;SDS011;9765;52.354;20.884;2023-04-26T07:37:49;14.10;;;2.20;;
19262;SDS011;9765;52.354;20.884;2023-04-26T07:40:16;18.40;;;2.50;;
19262;SDS011;9765;52.354;20.884;2023-04-26T07:42:43;13.00;;;2.80;;
19262;SDS011;9765;52.354;20.884;2023-04-26T07:45:12;13.50;;;2.37;;
19262;SDS011;9765;52.354;20.884;2023-04-26T07:47:39;14.50;;;2.43;;
19262;SDS011;9765;52.354;20.884;2023-04-26T07:50:06;16.73;;;2.80;;
19262;SDS011;9765;52.354;20.884;2023-04-26T07:52:34;8.00;;;2.10;;
19262;SDS011;9765;52.354;20.884;2023-04-26T07:55:02;11.60;;;2.50;;
19262;SDS011;9765;52.354;20.884;2023-04-26T07:57:29;17.33;;;2.70;;
19262;SDS011;9765;52.354;20.884;2023-04-26T07:59:56;12.27;;;2.17;;
19262;SDS011;9765;52.354;20.884;2023-04-26T08:02:24;9.17;;;2.30;;
19262;SDS011;9765;52.354;20.884;2023-04-26T08:04:51;11.40;;;2.60;;
19262;SDS011;9765;52.354;20.884;2023-04-26T08:07:20;7.83;;;2.20;;
19262;SDS011;9765;52.354;20.884;2023-04-26T08:09:47;13.17;;;2.50;;
19262;SDS011;9765;52.354;20.884;2023-04-26T08:12:14;11.40;;;2.60;;
19262;SDS011;9765;52.354;20.884;2023-04-26T08:14:41;10.43;;;2.40;;
19262;SDS011;9765;52.354;20.884;2023-04-26T08:17:08;16.73;;;3.37;;
19262;SDS011;9765;52.354;20.884;2023-04-26T08:19:36;7.83;;;2.90;;
19262;SDS011;9765;52.354;20.884;2023-04-26T08:22:03;10.60;;;3.10;;
19262;SDS011;9765;52.354;20.884;2023-04-26T08:24:30;10.77;;;3.10;;
19262;SDS011;9765;52.354;20.884;2023-04-26T08:26:57;10.77;;;3.03;;
19262;SDS011;9765;52.354;20.884;2023-04-26T08:29:25;18.60;;;3.40;;
19262;SDS011;9765;52.354;20.884;2023-04-26T08:31:52;13.07;;;3.67;;
19262;SDS011;9765;52.354;20.884;2023-04-26T08:34:19;9.43;;;3.13;;
19262;SDS011;9765;52.354;20.884;2023-04-26T08:36:47;11.90;;;3.40;;
19262;SDS011;9765;52.354;20.884;2023-04-26T08:39:14;16.83;;;3.57;;
19262;SDS011;9765;52.354;20.884;2023-04-26T08:41:42;8.13;;;3.17;;
19262;SDS011;9765;52.354;20.884;2023-04-26T08:44:11;14.60;;;3.33;;
19262;SDS011;9765;52.354;20.884;2023-04-26T08:46:40;15.07;;;3.30;;
19262;SDS011;9765;52.354;20.884;2023-04-26T08:49:12;15.17;;;3.47;;
19262;SDS011;9765;52.354;20.884;2023-04-26T08:51:47;12.57;;;3.67;;
19262;SDS011;9765;52.354;20.884;2023-04-26T08:54:15;14.10;;;3.70;;
19262;SDS011;9765;52.354;20.884;2023-04-26T08:56:44;10.57;;;3.40;;
19262;SDS011;9765;52.354;20.884;2023-04-26T08:59:12;12.47;;;3.67;;
19262;SDS011;9765;52.354;20.884;2023-04-26T09:01:39;11.67;;;3.40;;
19262;SDS011;9765;52.354;20.884;2023-04-26T09:04:05;7.27;;;3.00;;
19262;SDS011;9765;52.354;20.884;2023-04-26T09:06:32;10.70;;;3.53;;
19262;SDS011;9765;52.354;20.884;2023-04-26T09:09:02;9.07;;;3.20;;
19262;SDS011;9765;52.354;20.884;2023-04-26T09:14:18;7.03;;;2.60;;
19262;SDS011;9765;52.354;20.884;2023-04-26T09:16:46;9.93;;;2.60;;
19262;SDS011;9765;52.354;20.884;2023-04-26T09:19:13;10.53;;;2.27;;
19262;SDS011;9765;52.354;20.884;2023-04-26T09:21:43;9.67;;;2.23;;
19262;SDS011;9765;52.354;20.884;2023-04-26T09:24:12;9.20;;;2.20;;
19262;SDS011;9765;52.354;20.884;2023-04-26T09:26:40;11.70;;;2.43;;
19262;SDS011;9765;52.354;20.884;2023-04-26T09:29:10;14.23;;;2.33;;
19262;SDS011;9765;52.354;20.884;2023-04-26T09:31:42;7.57;;;2.60;;
19262;SDS011;9765;52.354;20.884;2023-04-26T09:34:09;8.30;;;2.43;;
19262;SDS011;9765;52.354;20.884;2023-04-26T09:36:47;13.13;;;2.47;;
19262;SDS011;9765;52.354;20.884;2023-04-26T09:39:31;7.37;;;2.50;;
19262;SDS011;9765;52.354;20.884;2023-04-26T09:41:59;9.23;;;2.03;;
19262;SDS011;9765;52.354;20.884;2023-04-26T09:44:28;7.57;;;1.90;;
19262;SDS011;9765;52.354;20.884;2023-04-26T09:46:56;10.13;;;1.90;;
19262;SDS011;9765;52.354;20.884;2023-04-26T09:49:24;6.83;;;2.00;;
19262;SDS011;9765;52.354;20.884;2023-04-26T09:51:58;14.60;;;2.20;;
19262;SDS011;9765;52.354;20.884;2023-04-26T09:54:44;7.10;;;2.20;;
19262;SDS011;9765;52.354;20.884;2023-04-26T09:57:12;7.70;;;2.50;;
19262;SDS011;9765;52.354;20.884;2023-04-26T09:59:40;13.07;;;2.03;;
19262;SDS011;9765;52.354;20.884;2023-04-26T10:02:12;10.03;;;2.10;;
19262;SDS011;9765;52.354;20.884;2023-04-26T10:04:42;7.97;;;1.87;;
19262;SDS011;9765;52.354;20.884;2023-04-26T10:07:11;11.27;;;2.00;;
19262;SDS011;9765;52.354;20.884;2023-04-26T10:09:38;9.80;;;2.20;;
19262;SDS011;9765;52.354;20.884;2023-04-26T10:12:07;11.17;;;2.47;;
19262;SDS011;9765;52.354;20.884;2023-04-26T10:14:35;8.60;;;2.63;;
19262;SDS011;9765;52.354;20.884;2023-04-26T10:17:02;9.60;;;2.27;;
19262;SDS011;9765;52.354;20.884;2023-04-26T10:19:30;6.73;;;1.90;;
19262;SDS011;9765;52.354;20.884;2023-04-26T10:21:59;11.47;;;2.07;;
19262;SDS011;9765;52.354;20.884;2023-04-26T10:24:30;10.37;;;2.20;;
19262;SDS011;9765;52.354;20.884;2023-04-26T10:26:59;7.53;;;2.47;;
19262;SDS011;9765;52.354;20.884;2023-04-26T10:30:04;10.93;;;2.30;;
19262;SDS011;9765;52.354;20.884;2023-04-26T10:32:35;12.07;;;2.23;;
19262;SDS011;9765;52.354;20.884;2023-04-26T10:38:31;10.23;;;2.70;;
19262;SDS011;9765;52.354;20.884;2023-04-26T10:47:19;6.67;;;2.07;;
19262;SDS011;9765;52.354;20.884;2023-04-26T10:49:47;12.63;;;2.33;;
19262;SDS011;9765;52.354;20.884;2023-04-26T10:52:17;11.87;;;2.60;;
19262;SDS011;9765;52.354;20.884;2023-04-26T10:54:53;7.67;;;2.40;;
19262;SDS011;9765;52.354;20.884;2023-04-26T10:57:21;9.80;;;2.27;;
19262;SDS011;9765;52.354;20.884;2023-04-26T11:02:44;6.53;;;1.93;;
19262;SDS011;9765;52.354;20.884;2023-04-26T11:05:20;8.80;;;1.97;;
19262;SDS011;9765;52.354;20.884;2023-04-26T11:08:05;8.00;;;2.03;;
19262;SDS011;9765;52.354;20.884;2023-04-26T11:10:35;9.47;;;2.13;;
19262;SDS011;9765;52.354;20.884;2023-04-26T11:13:05;10.67;;;2.20;;
19262;SDS011;9765;52.354;20.884;2023-04-26T11:15:32;7.37;;;2.30;;
19262;SDS011;9765;52.354;20.884;2023-04-26T11:18:02;9.07;;;2.30;;
19262;SDS011;9765;52.354;20.884;2023-04-26T11:20:29;15.03;;;2.27;;
19262;SDS011;9765;52.354;20.884;2023-04-26T11:22:57;7.17;;;2.20;;
19262;SDS011;9765;52.354;20.884;2023-04-26T11:25:25;10.47;;;1.80;;
19262;SDS011;9765;52.354;20.884;2023-04-26T11:27:59;12.77;;;2.40;;
19262;SDS011;9765;52.354;20.884;2023-04-26T11:30:27;9.83;;;2.20;;
19262;SDS011;9765;52.354;20.884;2023-04-26T11:32:58;12.03;;;2.53;;
19262;SDS011;9765;52.354;20.884;2023-04-26T11:35:27;12.40;;;2.40;;
19262;SDS011;9765;52.354;20.884;2023-04-26T11:37:56;12.63;;;2.43;;
19262;SDS011;9765;52.354;20.884;2023-04-26T11:40:28;16.00;;;2.80;;
19262;SDS011;9765;52.354;20.884;2023-04-26T11:42:59;14.60;;;3.17;;
19262;SDS011;9765;52.354;20.884;2023-04-26T11:45:27;16.20;;;2.50;;
19262;SDS011;9765;52.354;20.884;2023-04-26T11:47:54;9.57;;;2.50;;
19262;SDS011;9765;52.354;20.884;2023-04-26T11:50:22;14.17;;;2.60;;
19262;SDS011;9765;52.354;20.884;2023-04-26T11:52:53;8.20;;;2.00;;
19262;SDS011;9765;52.354;20.884;2023-04-26T11:55:23;11.83;;;2.53;;
19262;SDS011;9765;52.354;20.884;2023-04-26T11:57:52;10.80;;;2.73;;
19262;SDS011;9765;52.354;20.884;2023-04-26T12:00:19;6.60;;;2.43;;
19262;SDS011;9765;52.354;20.884;2023-04-26T12:02:47;10.00;;;2.13;;
19262;SDS011;9765;52.354;20.884;2023-04-26T12:05:21;10.83;;;2.00;;
19262;SDS011;9765;52.354;20.884;2023-04-26T12:07:49;14.27;;;2.57;;
19262;SDS011;9765;52.354;20.884;2023-04-26T12:10:19;10.77;;;2.70;;
19262;SDS011;9765;52.354;20.884;2023-04-26T12:12:50;6.90;;;2.50;;
19262;SDS011;9765;52.354;20.884;2023-04-26T12:15:18;14.73;;;2.53;;
19262;SDS011;9765;52.354;20.884;2023-04-26T12:17:55;7.53;;;2.40;;
19262;SDS011;9765;52.354;20.884;2023-04-26T12:20:29;13.50;;;2.33;;
19262;SDS011;9765;52.354;20.884;2023-04-26T12:23:04;9.83;;;2.20;;
19262;SDS011;9765;52.354;20.884;2023-04-26T12:25:34;9.00;;;2.53;;
19262;SDS011;9765;52.354;20.884;2023-04-26T12:28:02;9.27;;;2.23;;
19262;SDS011;9765;52.354;20.884;2023-04-26T12:30:30;8.83;;;2.10;;
19262;SDS011;9765;52.354;20.884;2023-04-26T12:32:57;8.93;;;2.67;;
19262;SDS011;9765;52.354;20.884;2023-04-26T12:35:23;6.37;;;1.93;;
19262;SDS011;9765;52.354;20.884;2023-04-26T12:37:50;7.53;;;2.40;;
19262;SDS011;9765;52.354;20.884;2023-04-26T12:40:20;6.57;;;2.37;;
19262;SDS011;9765;52.354;20.884;2023-04-26T12:42:49;9.77;;;2.00;;
19262;SDS011;9765;52.354;20.884;2023-04-26T12:45:16;4.80;;;1.90;;
19262;SDS011;9765;52.354;20.884;2023-04-26T12:47:44;9.27;;;2.10;;
19262;SDS011;9765;52.354;20.884;2023-04-26T12:50:11;6.13;;;2.10;;
19262;SDS011;9765;52.354;20.884;2023-04-26T12:52:39;6.97;;;1.93;;
19262;SDS011;9765;52.354;20.884;2023-04-26T12:55:08;7.43;;;2.10;;
19262;SDS011;9765;52.354;20.884;2023-04-26T12:57:35;7.47;;;2.13;;
19262;SDS011;9765;52.354;20.884;2023-04-26T13:00:05;8.20;;;2.30;;
19262;SDS011;9765;52.354;20.884;2023-04-26T13:02:33;14.33;;;2.53;;
19262;SDS011;9765;52.354;20.884;2023-04-26T13:05:03;8.47;;;2.20;;
19262;SDS011;9765;52.354;20.884;2023-04-26T13:07:30;8.13;;;1.87;;
19262;SDS011;9765;52.354;20.884;2023-04-26T13:09:58;10.83;;;2.03;;
19262;SDS011;9765;52.354;20.884;2023-04-26T13:12:25;10.87;;;2.20;;
19262;SDS011;9765;52.354;20.884;2023-04-26T13:14:52;12.17;;;2.07;;
19262;SDS011;9765;52.354;20.884;2023-04-26T13:17:21;13.30;;;2.10;;
19262;SDS011;9765;52.354;20.884;2023-04-26T13:19:49;6.77;;;2.10;;
19262;SDS011;9765;52.354;20.884;2023-04-26T13:22:17;9.80;;;2.20;;
19262;SDS011;9765;52.354;20.884;2023-04-26T13:24:44;8.23;;;2.30;;
19262;SDS011;9765;52.354;20.884;2023-04-26T13:27:11;5.07;;;1.70;;
19262;SDS011;9765;52.354;20.884;2023-04-26T13:29:38;9.97;;;1.87;;
19262;SDS011;9765;52.354;20.884;2023-04-26T13:32:05;9.33;;;2.00;;
19262;SDS011;9765;52.354;20.884;2023-04-26T13:34:33;8.97;;;2.27;;
19262;SDS011;9765;52.354;20.884;2023-04-26T13:37:00;9.23;;;2.30;;
19262;SDS011;9765;52.354;20.884;2023-04-26T13:39:28;6.80;;;1.83;;
19262;SDS011;9765;52.354;20.884;2023-04-26T13:41:55;8.43;;;2.30;;
19262;SDS011;9765;52.354;20.884;2023-04-26T13:44:23;6.80;;;2.43;;
19262;SDS011;9765;52.354;20.884;2023-04-26T13:46:53;9.13;;;2.50;;
19262;SDS011;9765;52.354;20.884;2023-04-26T13:49:21;7.53;;;2.30;;
19262;SDS011;9765;52.354;20.884;2023-04-26T13:51:49;7.37;;;2.17;;
19262;SDS011;9765;52.354;20.884;2023-04-26T13:54:16;7.13;;;2.30;;
19262;SDS011;9765;52.354;20.884;2023-04-26T13:56:43;8.90;;;2.10;;
19262;SDS011;9765;52.354;20.884;2023-04-26T13:59:10;9.13;;;2.50;;
19262;SDS011;9765;52.354;20.884;2023-04-26T14:01:37;7.13;;;1.90;;
19262;SDS011;9765;52.354;20.884;2023-04-26T14:04:04;9.07;;;2.60;;
19262;SDS011;9765;52.354;20.884;2023-04-26T14:06:32;9.47;;;2.27;;
19262;SDS011;9765;52.354;20.884;2023-04-26T14:09:01;8.73;;;2.60;;
19262;SDS011;9765;52.354;20.884;2023-04-26T14:11:29;16.00;;;3.77;;
19262;SDS011;9765;52.354;20.884;2023-04-26T14:13:56;15.67;;;2.87;;
19262;SDS011;9765;52.354;20.884;2023-04-26T14:16:23;6.43;;;2.20;;
19262;SDS011;9765;52.354;20.884;2023-04-26T14:18:51;13.27;;;2.47;;
19262;SDS011;9765;52.354;20.884;2023-04-26T14:21:18;5.27;;;2.37;;
19262;SDS011;9765;52.354;20.884;2023-04-26T14:23:45;10.40;;;2.87;;
19262;SDS011;9765;52.354;20.884;2023-04-26T14:26:13;18.67;;;2.70;;
19262;SDS011;9765;52.354;20.884;2023-04-26T14:28:39;11.57;;;2.53;;
19262;SDS011;9765;52.354;20.884;2023-04-26T14:31:06;9.10;;;2.40;;
19262;SDS011;9765;52.354;20.884;2023-04-26T14:33:33;7.37;;;2.10;;
19262;SDS011;9765;52.354;20.884;2023-04-26T14:36:02;17.30;;;3.00;;
19262;SDS011;9765;52.354;20.884;2023-04-26T14:38:29;10.70;;;2.20;;
19262;SDS011;9765;52.354;20.884;2023-04-26T14:40:56;12.93;;;2.77;;
19262;SDS011;9765;52.354;20.884;2023-04-26T14:43:24;8.43;;;2.47;;
19262;SDS011;9765;52.354;20.884;2023-04-26T14:45:51;9.73;;;2.73;;
19262;SDS011;9765;52.354;20.884;2023-04-26T14:48:18;8.70;;;2.27;;
19262;SDS011;9765;52.354;20.884;2023-04-26T14:50:45;8.63;;;2.27;;
19262;SDS011;9765;52.354;20.884;2023-04-26T14:53:12;10.23;;;2.23;;
19262;SDS011;9765;52.354;20.884;2023-04-26T14:55:38;9.90;;;2.47;;
19262;SDS011;9765;52.354;20.884;2023-04-26T14:58:05;13.93;;;2.60;;
19262;SDS011;9765;52.354;20.884;2023-04-26T15:00:33;9.23;;;2.30;;
19262;SDS011;9765;52.354;20.884;2023-04-26T15:03:02;11.40;;;2.40;;
19262;SDS011;9765;52.354;20.884;2023-04-26T15:05:29;7.23;;;2.37;;
19262;SDS011;9765;52.354;20.884;2023-04-26T15:07:56;9.27;;;2.40;;
19262;SDS011;9765;52.354;20.884;2023-04-26T15:10:23;16.40;;;3.50;;
19262;SDS011;9765;52.354;20.884;2023-04-26T15:12:50;10.07;;;2.17;;
19262;SDS011;9765;52.354;20.884;2023-04-26T15:15:16;9.63;;;2.30;;
19262;SDS011;9765;52.354;20.884;2023-04-26T15:17:47;7.17;;;2.30;;
19262;SDS011;9765;52.354;20.884;2023-04-26T15:20:14;11.70;;;2.63;;
19262;SDS011;9765;52.354;20.884;2023-04-26T15:22:40;12.47;;;2.33;;
19262;SDS011;9765;52.354;20.884;2023-04-26T15:25:08;14.70;;;2.50;;
19262;SDS011;9765;52.354;20.884;2023-04-26T15:27:36;11.10;;;2.70;;
19262;SDS011;9765;52.354;20.884;2023-04-26T15:30:03;9.17;;;2.37;;
19262;SDS011;9765;52.354;20.884;2023-04-26T15:32:31;9.07;;;2.70;;
19262;SDS011;9765;52.354;20.884;2023-04-26T15:35:00;7.00;;;2.13;;
19262;SDS011;9765;52.354;20.884;2023-04-26T15:37:29;6.00;;;2.10;;
19262;SDS011;9765;52.354;20.884;2023-04-26T15:39:58;10.80;;;2.47;;
19262;SDS011;9765;52.354;20.884;2023-04-26T15:42:26;21.00;;;2.77;;
19262;SDS011;9765;52.354;20.884;2023-04-26T15:44:53;6.63;;;2.10;;
19262;SDS011;9765;52.354;20.884;2023-04-26T15:47:19;12.80;;;2.50;;
19262;SDS011;9765;52.354;20.884;2023-04-26T15:49:46;7.47;;;2.50;;
19262;SDS011;9765;52.354;20.884;2023-04-26T15:52:14;11.83;;;2.27;;
19262;SDS011;9765;52.354;20.884;2023-04-26T15:54:42;11.27;;;2.47;;
19262;SDS011;9765;52.354;20.884;2023-04-26T15:57:08;9.77;;;2.27;;
19262;SDS011;9765;52.354;20.884;2023-04-26T15:59:36;8.73;;;2.63;;
19262;SDS011;9765;52.354;20.884;2023-04-26T16:02:03;8.40;;;2.43;;
19262;SDS011;9765;52.354;20.884;2023-04-26T16:04:30;10.83;;;2.90;;
19262;SDS011;9765;52.354;20.884;2023-04-26T16:06:56;10.17;;;2.40;;
19262;SDS011;9765;52.354;20.884;2023-04-26T16:09:24;10.77;;;2.43;;
19262;SDS011;9765;52.354;20.884;2023-04-26T16:11:51;15.10;;;3.43;;
19262;SDS011;9765;52.354;20.884;2023-04-26T16:14:18;12.20;;;3.33;;
19262;SDS011;9765;52.354;20.884;2023-04-26T16:16:45;11.00;;;3.53;;
19262;SDS011;9765;52.354;20.884;2023-04-26T16:19:11;11.80;;;3.60;;
19262;SDS011;9765;52.354;20.884;2023-04-26T16:21:40;9.20;;;3.67;;
19262;SDS011;9765;52.354;20.884;2023-04-26T16:24:07;9.97;;;3.60;;
19262;SDS011;9765;52.354;20.884;2023-04-26T16:26:36;10.17;;;2.93;;
19262;SDS011;9765;52.354;20.884;2023-04-26T16:29:03;15.57;;;4.37;;
19262;SDS011;9765;52.354;20.884;2023-04-26T16:31:30;10.03;;;3.40;;
19262;SDS011;9765;52.354;20.884;2023-04-26T16:33:57;13.63;;;3.43;;
19262;SDS011;9765;52.354;20.884;2023-04-26T16:36:24;12.87;;;3.50;;
19262;SDS011;9765;52.354;20.884;2023-04-26T16:38:51;13.57;;;3.43;;
19262;SDS011;9765;52.354;20.884;2023-04-26T16:41:18;14.43;;;4.23;;
19262;SDS011;9765;52.354;20.884;2023-04-26T16:43:46;15.33;;;4.60;;
19262;SDS011;9765;52.354;20.884;2023-04-26T16:46:13;18.50;;;5.30;;
19262;SDS011;9765;52.354;20.884;2023-04-26T16:48:39;15.03;;;4.60;;
19262;SDS011;9765;52.354;20.884;2023-04-26T16:51:06;12.90;;;4.40;;
19262;SDS011;9765;52.354;20.884;2023-04-26T16:53:33;12.90;;;3.63;;
19262;SDS011;9765;52.354;20.884;2023-04-26T16:56:01;12.10;;;3.43;;
19262;SDS011;9765;52.354;20.884;2023-04-26T16:58:28;10.20;;;3.00;;
19262;SDS011;9765;52.354;20.884;2023-04-26T17:00:56;11.57;;;3.17;;
19262;SDS011;9765;52.354;20.884;2023-04-26T17:03:23;10.27;;;3.30;;
19262;SDS011;9765;52.354;20.884;2023-04-26T17:05:50;13.23;;;3.93;;
19262;SDS011;9765;52.354;20.884;2023-04-26T17:08:17;12.33;;;3.93;;
19262;SDS011;9765;52.354;20.884;2023-04-26T17:10:44;12.60;;;3.47;;
19262;SDS011;9765;52.354;20.884;2023-04-26T17:13:12;15.63;;;3.37;;
19262;SDS011;9765;52.354;20.884;2023-04-26T17:15:39;12.27;;;3.57;;
19262;SDS011;9765;52.354;20.884;2023-04-26T17:18:07;12.97;;;3.40;;
19262;SDS011;9765;52.354;20.884;2023-04-26T17:20:34;9.90;;;3.37;;
19262;SDS011;9765;52.354;20.884;2023-04-26T17:23:02;9.30;;;3.37;;
19262;SDS011;9765;52.354;20.884;2023-04-26T17:25:29;9.43;;;3.30;;
19262;SDS011;9765;52.354;20.884;2023-04-26T17:27:56;10.87;;;3.47;;
19262;SDS011;9765;52.354;20.884;2023-04-26T17:30:22;11.53;;;3.50;;
19262;SDS011;9765;52.354;20.884;2023-04-26T17:32:49;14.33;;;4.73;;
19262;SDS011;9765;52.354;20.884;2023-04-26T17:35:17;9.77;;;3.90;;
19262;SDS011;9765;52.354;20.884;2023-04-26T17:37:44;12.37;;;4.73;;
19262;SDS011;9765;52.354;20.884;2023-04-26T17:40:14;20.87;;;4.67;;
19262;SDS011;9765;52.354;20.884;2023-04-26T17:42:42;12.43;;;4.20;;
19262;SDS011;9765;52.354;20.884;2023-04-26T17:45:09;15.93;;;4.50;;
19262;SDS011;9765;52.354;20.884;2023-04-26T17:47:36;15.40;;;3.60;;
